Time;durP1;ratioP1;P1;durP2;ratioP2;P2;SDS_P1;SDS_P2;PMS_P1;PMS_P2;Temp;Humidity;BMP_temperature;BMP_pressure;BME280_temperature;BME280_humidity;BME280_pressure;Samples;Min_cycle;Max_cycle;Signal;HPM_P1;HPM_P2
2023/07/07 00:00:31;;;;;;;6.10;2.33;;;;;;;23.16;44.96;101837.41;5021721;28;20071;-65
2023/07/07 00:02:57;;;;;;;7.72;2.65;;;;;;;23.15;45.17;101833.06;5025473;28;20083;-67
2023/07/07 00:05:22;;;;;;;4.78;2.70;;;;;;;23.14;44.91;101836.69;5037538;28;20043;-66
2023/07/07 00:07:48;;;;;;;7.72;2.58;;;;;;;23.13;45.58;101837.69;5041343;28;21161;-67
2023/07/07 00:10:14;;;;;;;4.85;2.72;;;;;;;23.15;45.14;101835.72;5024870;28;20030;-67
2023/07/07 00:12:39;;;;;;;5.07;2.53;;;;;;;23.16;45.02;101841.88;5039803;28;20093;-67
2023/07/07 00:15:06;;;;;;;4.78;2.35;;;;;;;23.14;44.89;101835.84;5041134;28;20086;-66
2023/07/07 00:17:31;;;;;;;5.07;2.50;;;;;;;23.13;45.39;101834.16;5033286;28;20065;-67
2023/07/07 00:19:56;;;;;;;4.45;2.28;;;;;;;23.14;44.79;101842.00;5033765;28;20033;-68
2023/07/07 00:22:22;;;;;;;6.53;2.50;;;;;;;23.12;44.93;101837.81;5032318;28;20052;-67
2023/07/07 00:24:47;;;;;;;5.45;2.70;;;;;;;23.12;44.93;101843.97;5040384;28;20656;-68
2023/07/07 00:27:14;;;;;;;5.68;2.47;;;;;;;23.12;45.02;101841.31;5038266;28;21040;-67
2023/07/07 00:29:39;;;;;;;6.32;2.80;;;;;;;23.11;45.11;101838.78;5040860;28;20041;-68
2023/07/07 00:32:05;;;;;;;4.57;2.40;;;;;;;23.07;44.87;101824.06;5034133;28;20025;-67
2023/07/07 00:34:30;;;;;;;5.60;2.70;;;;;;;23.10;45.20;101834.47;5041058;28;21061;-68
2023/07/07 00:36:55;;;;;;;4.75;2.60;;;;;;;23.12;45.15;101841.31;5038854;28;20025;-67
2023/07/07 00:39:21;;;;;;;6.07;2.88;;;;;;;23.10;45.21;101834.47;5021544;28;20061;-66
2023/07/07 00:41:46;;;;;;;5.47;3.05;;;;;;;23.10;45.21;101832.63;5020950;28;20029;-67
2023/07/07 00:44:12;;;;;;;5.00;2.80;;;;;;;23.11;45.10;101844.94;5035239;28;20128;-66
2023/07/07 00:46:38;;;;;;;6.40;2.90;;;;;;;23.09;45.34;101836.25;5040783;28;20148;-67
2023/07/07 00:49:08;;;;;;;5.88;2.95;;;;;;;23.09;44.91;101843.41;5040741;28;20079;-68
2023/07/07 00:51:43;;;;;;;4.90;2.80;;;;;;;23.10;45.31;101843.25;5040168;28;20060;-67
2023/07/07 00:54:14;;;;;;;4.85;2.67;;;;;;;23.09;45.27;101840.75;5029940;28;20048;-66
2023/07/07 00:56:44;;;;;;;5.45;2.75;;;;;;;23.07;44.83;101829.38;5024353;28;20118;-67
2023/07/07 00:59:15;;;;;;;5.18;2.97;;;;;;;23.07;45.26;101832.03;5024149;28;20037;-67
2023/07/07 01:01:42;;;;;;;6.13;3.60;;;;;;;23.07;44.90;101834.69;5042129;28;20032;-67
2023/07/07 01:04:13;;;;;;;7.53;4.10;;;;;;;23.06;45.23;101839.16;5033802;28;20029;-67
2023/07/07 01:06:42;;;;;;;8.73;3.72;;;;;;;23.05;45.08;101847.25;5045352;28;20096;-67
2023/07/07 01:09:08;;;;;;;6.20;4.22;;;;;;;23.07;45.19;101851.47;5031577;28;20049;-67
2023/07/07 01:11:36;;;;;;;6.43;3.90;;;;;;;23.07;44.82;101846.16;5023075;28;20037;-67
2023/07/07 01:14:06;;;;;;;6.18;4.18;;;;;;;23.04;45.13;101843.75;5028763;28;20753;-67
2023/07/07 01:16:40;;;;;;;7.70;4.40;;;;;;;23.05;44.93;101848.13;5039583;28;20520;-67
2023/07/07 01:19:30;;;;;;;6.45;4.75;;;;;;;23.05;45.21;101852.56;5044643;28;20090;-66
2023/07/07 01:22:34;;;;;;;6.97;4.45;;;;;;;23.04;45.13;101843.75;5032162;28;20140;-67
2023/07/07 01:25:03;;;;;;;5.85;4.07;;;;;;;23.07;44.83;101848.81;5020396;28;20488;-68
2023/07/07 01:27:57;;;;;;;6.88;4.50;;;;;;;23.05;44.55;101844.59;5039177;28;20028;-67
2023/07/07 01:30:51;;;;;;;5.88;4.05;;;;;;;23.05;44.64;101848.13;5028435;28;20044;-68
2023/07/07 01:33:19;;;;;;;6.40;4.15;;;;;;;23.03;44.60;101846.56;5042039;28;20422;-68
2023/07/07 01:35:45;;;;;;;6.43;4.10;;;;;;;23.01;44.84;101836.88;5044270;28;20314;-68
2023/07/07 01:38:40;;;;;;;6.82;4.05;;;;;;;23.00;44.55;101843.19;5044414;28;20861;-67
2023/07/07 01:41:22;;;;;;;4.90;3.40;;;;;;;23.01;44.45;101834.22;5043804;28;20132;-67
2023/07/07 01:44:06;;;;;;;5.97;3.80;;;;;;;23.00;44.58;101842.31;5041494;28;20033;-67
2023/07/07 01:46:41;;;;;;;6.25;3.63;;;;;;;22.97;44.65;101838.13;5036084;28;20037;-67
2023/07/07 01:49:26;;;;;;;5.85;3.75;;;;;;;22.97;44.67;101840.78;5024325;28;20083;-67
2023/07/07 01:52:08;;;;;;;7.15;4.20;;;;;;;23.00;44.66;101843.19;5033574;28;20216;-67
2023/07/07 01:54:38;;;;;;;7.03;4.03;;;;;;;22.99;44.49;101840.66;5025481;28;20086;-68
2023/07/07 01:57:06;;;;;;;6.28;3.53;;;;;;;22.99;44.50;101836.19;5024489;28;20473;-68
2023/07/07 01:59:32;;;;;;;5.80;3.95;;;;;;;22.97;44.17;101831.97;5023866;28;20076;-68
2023/07/07 02:01:58;;;;;;;5.22;3.70;;;;;;;22.97;44.32;101835.47;5024541;28;20041;-66
2023/07/07 02:04:24;;;;;;;6.15;4.22;;;;;;;22.96;44.48;101844.41;5027757;28;20036;-68
2023/07/07 02:06:49;;;;;;;5.47;3.50;;;;;;;22.98;44.58;101844.28;5023571;28;20065;-67
2023/07/07 02:09:14;;;;;;;4.90;3.53;;;;;;;22.97;44.30;101842.59;5039129;28;20377;-68
2023/07/07 02:11:40;;;;;;;5.55;3.35;;;;;;;22.94;44.51;101841.06;5042266;28;20114;-68
2023/07/07 02:14:05;;;;;;;5.00;3.22;;;;;;;22.93;44.19;101830.56;5039145;28;20064;-67
2023/07/07 02:16:31;;;;;;;7.80;3.67;;;;;;;22.96;44.49;101830.31;5037460;28;20053;-66
2023/07/07 02:18:56;;;;;;;5.43;3.40;;;;;;;22.95;44.55;101839.25;5043013;28;20040;-67
2023/07/07 02:21:21;;;;;;;5.30;3.30;;;;;;;22.93;44.41;101828.72;5043083;28;20961;-67
2023/07/07 02:23:47;;;;;;;6.32;3.25;;;;;;;22.92;44.57;101827.06;5043292;28;20033;-67
2023/07/07 02:26:13;;;;;;;5.40;3.28;;;;;;;22.91;44.36;101829.88;5031173;28;20083;-67
2023/07/07 02:28:39;;;;;;;5.07;3.20;;;;;;;22.93;44.52;101835.88;5034591;28;20048;-67
2023/07/07 02:31:06;;;;;;;4.68;2.85;;;;;;;22.92;44.38;101835.03;5042338;28;20051;-67
2023/07/07 02:33:31;;;;;;;5.95;3.10;;;;;;;22.92;44.29;101834.19;5043173;28;20033;-67
2023/07/07 02:36:02;;;;;;;5.47;2.95;;;;;;;22.89;44.44;101831.78;5039632;28;20517;-67
2023/07/07 02:38:29;;;;;;;6.00;3.05;;;;;;;22.90;44.14;101831.66;5023351;28;20042;-67
2023/07/07 02:40:54;;;;;;;5.78;2.92;;;;;;;22.89;44.45;101830.00;5025095;28;20083;-68
2023/07/07 02:43:19;;;;;;;6.18;3.05;;;;;;;22.90;44.56;101825.50;5023569;28;20041;-68
2023/07/07 02:45:45;;;;;;;4.88;3.03;;;;;;;22.89;44.29;101829.13;5034823;28;20140;-67
2023/07/07 02:48:10;;;;;;;5.50;3.13;;;;;;;22.89;44.48;101832.66;5043078;28;20045;-68
2023/07/07 02:50:35;;;;;;;4.80;3.30;;;;;;;22.87;44.46;101834.56;5041349;28;20037;-67
2023/07/07 02:53:02;;;;;;;5.50;3.20;;;;;;;22.87;44.23;101833.75;5042663;28;20484;-68
2023/07/07 02:55:27;;;;;;;5.70;3.38;;;;;;;22.90;44.08;101841.47;5042841;28;20269;-67
2023/07/07 02:57:52;;;;;;;5.32;3.33;;;;;;;22.86;44.13;101845.34;5041085;28;20044;-67
2023/07/07 03:00:18;;;;;;;7.63;3.25;;;;;;;22.89;44.63;101853.91;5042509;28;20055;-67
2023/07/07 03:02:43;;;;;;;4.97;3.03;;;;;;;22.87;43.95;101845.22;5022839;28;20037;-68
2023/07/07 03:05:09;;;;;;;5.50;3.30;;;;;;;22.88;44.19;101849.56;5027630;28;20113;-68
2023/07/07 03:07:34;;;;;;;4.82;3.08;;;;;;;22.88;44.07;101851.38;5034185;28;20727;-67
2023/07/07 03:10:00;;;;;;;6.25;3.67;;;;;;;22.86;44.46;101853.31;5042437;28;20390;-66
2023/07/07 03:12:25;;;;;;;6.10;3.42;;;;;;;22.89;43.96;101855.72;5034761;28;20033;-67
2023/07/07 03:14:56;;;;;;;5.57;3.40;;;;;;;22.85;44.33;101857.78;5022539;28;20036;-68
2023/07/07 03:17:22;;;;;;;5.00;3.15;;;;;;;22.82;44.21;101850.91;5035649;28;20045;-66
2023/07/07 03:19:47;;;;;;;6.00;3.58;;;;;;;22.85;44.29;101851.66;5042041;28;20086;-68
2023/07/07 03:22:12;;;;;;;5.88;3.42;;;;;;;22.83;44.40;101852.59;5025284;28;20493;-67
2023/07/07 03:24:38;;;;;;;5.25;3.17;;;;;;;22.85;44.10;101851.66;5041930;28;20029;-67
2023/07/07 03:27:03;;;;;;;6.63;3.33;;;;;;;22.84;44.02;101850.78;5027435;28;20546;-67
2023/07/07 03:29:29;;;;;;;5.63;3.00;;;;;;;22.84;44.07;101856.09;5022104;28;20250;-68
2023/07/07 03:31:54;;;;;;;6.10;3.13;;;;;;;22.81;44.30;101846.59;5033108;28;20031;-67
2023/07/07 03:34:19;;;;;;;5.10;3.10;;;;;;;22.80;44.12;101852.88;5041766;28;20090;-66
2023/07/07 03:36:45;;;;;;;5.20;3.20;;;;;;;22.81;44.09;101859.03;5028467;28;20029;-66
2023/07/07 03:39:10;;;;;;;5.85;2.90;;;;;;;22.81;43.83;101857.22;5025526;28;20033;-67
2023/07/07 03:41:36;;;;;;;5.72;3.10;;;;;;;22.80;43.79;101849.38;5042050;28;20075;-67
2023/07/07 03:44:01;;;;;;;5.93;3.40;;;;;;;22.82;43.98;101855.41;5041514;28;20036;-67
2023/07/07 03:46:28;;;;;;;6.00;3.08;;;;;;;22.79;44.01;101850.34;5040619;28;20726;-67
2023/07/07 03:48:54;;;;;;;4.80;3.10;;;;;;;22.80;44.02;101852.88;5039816;28;20070;-66
2023/07/07 03:51:21;;;;;;;4.95;3.20;;;;;;;22.79;44.08;101858.31;5041337;28;20041;-67
2023/07/07 03:53:47;;;;;;;6.28;3.30;;;;;;;22.78;43.71;101859.28;5041896;28;20033;-68
2023/07/07 03:56:13;;;;;;;7.03;3.30;;;;;;;22.77;43.69;101852.31;5029645;28;20032;-67
2023/07/07 03:58:39;;;;;;;5.40;2.80;;;;;;;22.77;43.87;101850.47;5037625;28;20033;-67
2023/07/07 04:01:06;;;;;;;6.20;3.08;;;;;;;22.77;43.80;101849.63;5041550;28;20047;-66
2023/07/07 04:03:32;;;;;;;5.05;3.03;;;;;;;22.76;43.89;101854.09;5026736;28;20029;-68
2023/07/07 04:05:57;;;;;;;5.63;3.10;;;;;;;22.76;43.72;101846.13;5026653;28;20736;-68
2023/07/07 04:08:25;;;;;;;5.43;3.15;;;;;;;22.78;43.93;101856.63;5025592;28;20359;-66
2023/07/07 04:11:09;;;;;;;5.05;3.00;;;;;;;22.74;43.80;101849.91;5024550;28;20047;-67
2023/07/07 04:13:37;;;;;;;4.63;3.00;;;;;;;22.75;44.09;101852.44;5028856;28;20125;-66
2023/07/07 04:16:09;;;;;;;4.22;2.58;;;;;;;22.75;44.22;101854.25;5030058;28;20051;-68
2023/07/07 04:18:34;;;;;;;5.35;2.80;;;;;;;22.76;43.86;101863.88;5022835;28;20116;-67
2023/07/07 04:21:02;;;;;;;5.53;3.00;;;;;;;22.75;44.02;101859.56;5024748;28;20961;-67
2023/07/07 04:23:28;;;;;;;4.85;2.92;;;;;;;22.75;44.14;101865.72;5027407;28;21144;-68
2023/07/07 04:25:54;;;;;;;6.35;2.92;;;;;;;22.74;43.98;101863.19;5030473;28;20036;-68
2023/07/07 04:28:20;;;;;;;4.78;2.40;;;;;;;22.73;43.77;101858.84;5024572;28;20059;-67
2023/07/07 04:30:54;;;;;;;4.95;2.50;;;;;;;22.72;44.11;101868.63;5021345;28;20667;-67
2023/07/07 04:33:19;;;;;;;5.65;2.40;;;;;;;22.74;44.28;101866.69;5022560;28;20037;-67
2023/07/07 04:35:50;;;;;;;4.97;2.80;;;;;;;22.72;44.08;101871.28;5025750;28;20051;-67
2023/07/07 04:38:15;;;;;;;5.15;2.58;;;;;;;22.75;44.32;101870.19;5030887;28;21101;-68
2023/07/07 04:40:40;;;;;;;5.90;3.10;;;;;;;22.76;44.05;101877.19;5034660;28;20049;-68
2023/07/07 04:43:06;;;;;;;4.80;2.60;;;;;;;22.73;44.27;101869.47;5026741;28;20039;-67
2023/07/07 04:45:33;;;;;;;4.32;2.55;;;;;;;22.73;44.13;101867.66;5029199;28;20053;-66
2023/07/07 04:47:58;;;;;;;5.07;2.58;;;;;;;22.75;43.95;101862.22;5024837;28;20457;-67
2023/07/07 04:50:23;;;;;;;4.87;2.47;;;;;;;22.75;44.36;101865.72;5025780;28;20095;-68
2023/07/07 04:52:49;;;;;;;5.00;2.67;;;;;;;22.74;43.97;101868.50;5037036;28;20468;-68
2023/07/07 04:55:14;;;;;;;5.33;2.83;;;;;;;22.73;44.09;101865.00;5036094;28;20262;-67
2023/07/07 04:57:39;;;;;;;5.07;2.83;;;;;;;22.75;43.93;101860.41;5030384;28;21148;-67
2023/07/07 05:00:07;;;;;;;4.68;2.67;;;;;;;22.74;44.37;101863.19;5028194;28;20131;-67
2023/07/07 05:02:35;;;;;;;5.90;2.50;;;;;;;22.72;44.17;101865.16;5030211;28;20899;-67
2023/07/07 05:05:00;;;;;;;4.82;2.45;;;;;;;22.74;44.12;101866.69;5021001;28;20068;-67
2023/07/07 05:07:28;;;;;;;4.15;2.40;;;;;;;22.74;44.00;101871.16;5029047;28;20061;-67
2023/07/07 05:09:54;;;;;;;4.57;2.63;;;;;;;22.73;44.40;101865.00;5036855;28;20883;-66
2023/07/07 05:12:19;;;;;;;5.70;2.55;;;;;;;22.71;44.01;101869.59;5029757;28;20047;-67
2023/07/07 05:14:45;;;;;;;5.35;2.83;;;;;;;22.73;44.28;101870.31;5025780;28;20040;-67
2023/07/07 05:17:10;;;;;;;4.63;2.60;;;;;;;22.70;44.38;101867.94;5027306;28;20057;-67
2023/07/07 05:19:35;;;;;;;5.05;2.80;;;;;;;22.73;44.28;101867.66;5027760;28;20036;-67
2023/07/07 05:22:01;;;;;;;5.65;2.58;;;;;;;22.71;43.95;101860.78;5037745;28;20455;-67
2023/07/07 05:24:26;;;;;;;4.65;2.63;;;;;;;22.72;43.98;101865.97;5035883;28;20470;-67
2023/07/07 05:26:51;;;;;;;5.03;2.50;;;;;;;22.73;44.28;101866.81;5026060;28;20466;-67
2023/07/07 05:29:17;;;;;;;3.90;2.10;;;;;;;22.74;44.29;101876.47;5029131;28;20075;-67
2023/07/07 05:31:42;;;;;;;4.75;2.30;;;;;;;22.73;44.62;101870.31;5024531;28;20258;-69
2023/07/07 05:34:08;;;;;;;5.10;2.80;;;;;;;22.72;44.36;101873.13;5020374;28;20112;-67
2023/07/07 05:36:33;;;;;;;4.60;2.50;;;;;;;22.74;44.52;101873.81;5024537;28;20397;-67
2023/07/07 05:38:59;;;;;;;5.07;2.47;;;;;;;22.71;44.28;101868.75;5022989;28;20462;-66
2023/07/07 05:41:24;;;;;;;4.57;2.30;;;;;;;22.74;44.67;101869.34;5034813;28;20095;-65
2023/07/07 05:43:50;;;;;;;4.47;2.28;;;;;;;22.74;44.65;101881.78;5024707;28;20033;-64
2023/07/07 05:46:16;;;;;;;6.32;2.72;;;;;;;22.72;44.62;101876.59;5025826;28;20557;-66
2023/07/07 05:48:42;;;;;;;4.38;2.25;;;;;;;22.70;44.57;101875.91;5024157;28;20033;-68
2023/07/07 05:51:10;;;;;;;5.53;2.53;;;;;;;22.71;44.84;101882.03;5024237;28;20041;-67
2023/07/07 05:53:40;;;;;;;4.53;2.65;;;;;;;22.73;44.71;101882.75;5024564;28;20037;-67
2023/07/07 05:56:09;;;;;;;5.22;2.67;;;;;;;22.73;44.56;101880.09;5025570;28;20142;-68
2023/07/07 05:58:35;;;;;;;5.00;2.50;;;;;;;22.72;44.62;101878.44;5024174;28;20462;-67
2023/07/07 06:01:01;;;;;;;4.80;2.53;;;;;;;22.74;44.69;101884.44;5023773;28;20041;-66
2023/07/07 06:03:26;;;;;;;5.25;2.40;;;;;;;22.74;44.53;101879.97;5024296;28;20040;-67
2023/07/07 06:05:51;;;;;;;4.50;2.22;;;;;;;22.72;44.43;101876.59;5031076;28;20112;-66
2023/07/07 06:08:17;;;;;;;4.10;1.98;;;;;;;22.74;44.43;101884.44;5043306;28;20035;-67
2023/07/07 06:10:46;;;;;;;4.90;2.53;;;;;;;22.70;44.52;101877.69;5042783;28;20275;-67
2023/07/07 06:13:12;;;;;;;5.00;2.15;;;;;;;22.74;44.42;101879.13;5023834;28;20037;-66
2023/07/07 06:15:37;;;;;;;5.05;2.35;;;;;;;22.73;44.72;101882.75;5023413;28;20769;-66
2023/07/07 06:18:02;;;;;;;4.35;2.20;;;;;;;22.73;44.72;101882.75;5028981;28;20048;-67
2023/07/07 06:20:27;;;;;;;5.38;2.25;;;;;;;22.72;45.06;101876.59;5031872;28;20069;-66
2023/07/07 06:22:54;;;;;;;5.15;2.20;;;;;;;22.74;44.87;101877.31;5023911;28;20029;-67
2023/07/07 06:25:20;;;;;;;4.88;2.38;;;;;;;22.72;44.95;101876.59;5023670;28;20466;-68
2023/07/07 06:27:45;;;;;;;5.47;2.45;;;;;;;22.72;44.77;101881.91;5034670;28;20029;-67
2023/07/07 06:30:11;;;;;;;4.65;2.28;;;;;;;22.74;44.93;101884.44;5023082;28;20045;-68
2023/07/07 06:32:36;;;;;;;6.35;2.20;;;;;;;22.73;44.56;101880.97;5038811;28;20034;-67
2023/07/07 06:35:02;;;;;;;4.13;2.20;;;;;;;22.74;44.63;101885.28;5035716;28;20079;-67
2023/07/07 06:37:27;;;;;;;4.55;2.22;;;;;;;22.72;44.51;101881.09;5031655;28;20371;-67
2023/07/07 06:39:52;;;;;;;4.82;2.25;;;;;;;22.71;44.63;101887.34;5023255;28;20386;-67
2023/07/07 06:42:17;;;;;;;4.13;2.05;;;;;;;22.75;44.99;101891.47;5028410;28;20139;-66
2023/07/07 06:44:43;;;;;;;4.00;2.10;;;;;;;22.73;44.98;101888.06;5042497;28;20125;-66
2023/07/07 06:47:13;;;;;;;4.00;2.20;;;;;;;22.71;44.58;101890.03;5034358;28;20112;-67
2023/07/07 06:49:39;;;;;;;4.88;2.28;;;;;;;22.73;44.92;101893.38;5023424;28;20283;-65
2023/07/07 06:52:05;;;;;;;3.88;1.83;;;;;;;22.71;45.22;101887.34;5027797;28;20436;-67
2023/07/07 06:54:30;;;;;;;3.95;2.10;;;;;;;22.73;44.80;101896.03;5037529;28;20051;-67
2023/07/07 06:56:55;;;;;;;4.80;2.30;;;;;;;22.72;45.03;101895.22;5026889;28;20033;-68
2023/07/07 06:59:20;;;;;;;5.25;2.25;;;;;;;22.75;45.08;101896.78;5042664;28;20289;-67
2023/07/07 07:01:46;;;;;;;5.13;2.28;;;;;;;22.75;45.36;101902.91;5043257;28;20029;-68
2023/07/07 07:04:11;;;;;;;6.05;2.50;;;;;;;22.72;44.92;101897.88;5034536;28;20110;-67
2023/07/07 07:06:36;;;;;;;5.63;2.07;;;;;;;22.75;45.69;101905.56;5024507;28;20033;-67
2023/07/07 07:09:01;;;;;;;4.90;2.42;;;;;;;22.74;45.12;101901.22;5022925;28;20765;-67
2023/07/07 07:11:27;;;;;;;4.15;2.15;;;;;;;22.72;45.13;101894.38;5022644;28;20034;-67
2023/07/07 07:13:52;;;;;;;5.03;2.00;;;;;;;22.77;45.42;101900.13;5041067;28;20039;-67
2023/07/07 07:16:18;;;;;;;4.55;2.33;;;;;;;22.75;45.42;101899.44;5031863;28;20053;-67
2023/07/07 07:18:43;;;;;;;6.15;2.00;;;;;;;22.77;45.29;101902.78;5022798;28;20052;-69
2023/07/07 07:21:08;;;;;;;4.10;2.00;;;;;;;22.75;45.70;101902.09;5022871;28;20991;-68
2023/07/07 07:23:33;;;;;;;4.68;2.00;;;;;;;22.77;45.63;101903.63;5028137;28;20469;-67
2023/07/07 07:25:59;;;;;;;4.77;2.10;;;;;;;22.79;45.97;101906.16;5042126;28;20041;-68
2023/07/07 07:28:24;;;;;;;4.75;2.42;;;;;;;22.77;45.72;101895.66;5026586;28;20332;-68
2023/07/07 07:30:49;;;;;;;4.63;1.90;;;;;;;22.78;46.08;101900.00;5034472;28;20045;-68
2023/07/07 07:33:20;;;;;;;4.82;2.30;;;;;;;22.79;45.70;101903.50;5027038;28;20037;-70
2023/07/07 07:35:46;;;;;;;3.70;2.00;;;;;;;22.78;45.68;101910.63;5037177;28;20106;-70
2023/07/07 07:38:11;;;;;;;5.55;2.10;;;;;;;22.76;46.28;101901.94;5030933;28;20474;-68
2023/07/07 07:40:37;;;;;;;5.20;1.90;;;;;;;22.77;46.42;101906.28;5022068;28;20474;-68
2023/07/07 07:43:02;;;;;;;4.85;2.20;;;;;;;22.77;46.54;101905.44;5025162;28;20517;-68
2023/07/07 07:45:28;;;;;;;5.90;2.13;;;;;;;22.77;45.98;101903.63;5036395;28;20037;-67
2023/07/07 07:47:53;;;;;;;10.20;2.28;;;;;;;22.78;46.35;101902.66;5026585;28;20036;-67
2023/07/07 07:50:21;;;;;;;4.07;2.10;;;;;;;22.79;46.37;101903.50;5032593;28;20480;-69
2023/07/07 07:52:46;;;;;;;4.80;2.13;;;;;;;22.78;46.69;101905.31;5041908;28;20120;-69
2023/07/07 07:55:14;;;;;;;5.00;2.22;;;;;;;22.81;46.65;101909.50;5039278;28;20043;-69
2023/07/07 07:57:39;;;;;;;7.70;2.10;;;;;;;22.79;47.29;101903.50;5025391;28;20040;-69
2023/07/07 08:00:06;;;;;;;5.07;2.20;;;;;;;22.83;47.13;101910.25;5025862;28;20037;-68
2023/07/07 08:02:31;;;;;;;7.53;2.25;;;;;;;22.89;46.73;101908.88;5021811;28;20037;-66
2023/07/07 08:04:56;;;;;;;6.07;2.40;;;;;;;23.01;46.59;101910.47;5039588;28;20465;-68
2023/07/07 08:07:22;;;;;;;5.80;2.10;;;;;;;23.06;46.15;101916.25;5031718;28;20068;-67
2023/07/07 08:09:48;;;;;;;6.35;2.20;;;;;;;23.07;46.18;101917.09;5026916;28;20269;-66
2023/07/07 08:12:13;;;;;;;5.07;2.00;;;;;;;23.04;46.13;101910.22;5028789;28;20048;-67
2023/07/07 08:14:39;;;;;;;4.35;2.03;;;;;;;23.11;45.75;101919.38;5015316;28;20029;-67
2023/07/07 08:17:08;;;;;;;6.63;1.88;;;;;;;23.16;46.11;101918.97;5027732;28;20053;-69
2023/07/07 08:19:36;;;;;;;5.70;1.92;;;;;;;23.20;46.07;101919.59;5031722;28;20370;-68
2023/07/07 08:22:06;;;;;;;4.03;1.80;;;;;;;23.23;46.20;101920.16;5040492;28;20045;-68
2023/07/07 08:24:37;;;;;;;4.05;1.83;;;;;;;23.25;45.78;101915.53;5028472;28;20117;-68
2023/07/07 08:27:02;;;;;;;5.97;1.95;;;;;;;23.27;45.92;101916.22;5027874;28;20034;-68
2023/07/07 08:29:27;;;;;;;4.78;1.73;;;;;;;23.31;45.96;101916.84;5031575;28;20040;-64
2023/07/07 08:31:54;;;;;;;5.20;1.80;;;;;;;23.32;45.55;101921.16;5036639;28;20025;-68
2023/07/07 08:34:19;;;;;;;4.00;1.90;;;;;;;23.35;45.32;101911.13;5027474;28;20500;-68
2023/07/07 08:36:47;;;;;;;4.80;1.85;;;;;;;23.38;45.49;101915.31;5031364;28;20029;-68
2023/07/07 08:39:18;;;;;;;4.72;2.00;;;;;;;23.37;46.00;101913.63;5025390;28;20055;-64
2023/07/07 08:41:51;;;;;;;6.43;2.08;;;;;;;23.41;45.93;101917.69;5035736;28;20497;-67
2023/07/07 08:44:20;;;;;;;4.40;1.90;;;;;;;23.43;45.58;101910.44;5021070;28;20052;-67
2023/07/07 08:47:10;;;;;;;4.50;1.52;;;;;;;23.45;45.88;101912.94;5032890;28;20624;-67
2023/07/07 08:49:39;;;;;;;4.43;2.15;;;;;;;23.45;45.50;101911.16;5020727;28;20458;-68
2023/07/07 08:52:46;;;;;;;4.45;1.70;;;;;;;23.41;45.72;101917.69;5028170;28;20120;-66
2023/07/07 08:55:21;;;;;;;3.60;1.67;;;;;;;23.39;46.07;101911.69;5034440;28;20494;-66
2023/07/07 08:58:01;;;;;;;3.53;1.83;;;;;;;23.32;45.93;101918.50;5021110;28;20120;-66
2023/07/07 09:00:42;;;;;;;3.60;1.73;;;;;;;23.34;45.96;101920.06;5020373;28;20030;-66
2023/07/07 09:03:15;;;;;;;3.67;1.67;;;;;;;23.31;45.75;101908.84;5036726;28;20498;-66
2023/07/07 09:06:02;;;;;;;5.93;1.92;;;;;;;23.32;45.53;101921.16;5030085;28;20033;-66
2023/07/07 09:08:41;;;;;;;5.65;2.08;;;;;;;23.31;45.88;101916.84;5039414;28;20048;-65
2023/07/07 09:11:15;;;;;;;3.83;1.88;;;;;;;23.33;45.46;101917.53;5040345;28;20032;-64
2023/07/07 09:13:42;;;;;;;4.53;1.85;;;;;;;23.30;45.39;101913.31;5038272;28;20041;-63
2023/07/07 09:16:25;;;;;;;3.30;1.65;;;;;;;23.24;45.70;101915.66;5025737;28;20044;-66
2023/07/07 09:19:03;;;;;;;3.90;1.63;;;;;;;23.25;45.56;101920.00;5031925;28;20091;-66
2023/07/07 09:21:43;;;;;;;5.22;1.77;;;;;;;23.18;45.38;101909.91;5024867;28;20034;-65
2023/07/07 09:24:36;;;;;;;6.43;1.77;;;;;;;23.19;45.48;101913.41;5024762;28;20047;-65
2023/07/07 09:27:07;;;;;;;5.55;1.85;;;;;;;23.17;45.81;101913.53;5024765;28;20501;-65
2023/07/07 09:29:33;;;;;;;4.63;1.73;;;;;;;23.16;45.75;101913.66;5025682;28;20037;-65
2023/07/07 09:32:02;;;;;;;5.53;1.80;;;;;;;23.12;45.31;101901.63;5034766;28;20037;-65
2023/07/07 09:34:29;;;;;;;6.32;1.90;;;;;;;23.11;45.89;101914.06;5044045;28;20115;-65
2023/07/07 09:37:04;;;;;;;6.28;1.80;;;;;;;23.15;45.82;101912.81;5038309;28;20052;-65
2023/07/07 09:39:36;;;;;;;6.90;1.60;;;;;;;23.25;45.25;101906.72;5034768;28;20111;-67
2023/07/07 09:42:07;;;;;;;5.68;1.48;;;;;;;23.27;45.33;101902.09;5035364;28;20132;-68
2023/07/07 09:44:54;;;;;;;5.30;1.98;;;;;;;23.28;45.43;101899.31;5024296;28;20034;-65
2023/07/07 09:47:28;;;;;;;3.97;1.80;;;;;;;23.33;45.25;101904.22;5021585;28;20529;-66
2023/07/07 09:50:01;;;;;;;5.65;1.90;;;;;;;23.39;45.61;101901.03;5030256;28;20048;-67
2023/07/07 09:52:42;;;;;;;4.20;1.73;;;;;;;23.37;45.44;101897.69;5031046;28;20115;-69
2023/07/07 09:55:18;;;;;;;4.95;1.85;;;;;;;23.43;45.32;101891.81;5028693;28;20389;-68
2023/07/07 09:57:57;;;;;;;4.72;1.73;;;;;;;23.45;45.64;101891.66;5043283;28;20029;-68
2023/07/07 10:00:24;;;;;;;4.22;1.70;;;;;;;23.50;45.51;101892.97;5035417;28;20412;-68
2023/07/07 10:02:50;;;;;;;4.20;1.90;;;;;;;23.51;45.27;101881.34;5023202;28;20037;-69
2023/07/07 10:05:23;;;;;;;3.55;1.55;;;;;;;23.53;45.21;101889.19;5025944;28;20854;-69
2023/07/07 10:07:49;;;;;;;4.85;1.58;;;;;;;23.55;45.80;101888.06;5016054;28;20034;-71
2023/07/07 10:10:15;;;;;;;5.30;1.70;;;;;;;23.57;45.57;101887.94;5014499;28;20530;-68
2023/07/07 10:12:41;;;;;;;4.70;1.70;;;;;;;23.58;45.25;101880.81;5025149;28;20458;-70
2023/07/07 10:15:54;;;;;;;4.13;1.52;;;;;;;23.61;45.36;101880.53;5027193;28;20059;-67
2023/07/07 10:18:25;;;;;;;5.05;1.77;;;;;;;23.62;45.33;101874.22;5016010;28;20041;-65
2023/07/07 10:20:52;;;;;;;4.25;1.45;;;;;;;23.64;45.14;101872.25;5012699;28;20124;-67
2023/07/07 10:23:17;;;;;;;3.67;1.60;;;;;;;23.66;45.28;101878.31;5019390;28;20028;-68
2023/07/07 10:25:44;;;;;;;5.78;1.65;;;;;;;23.65;45.59;101869.47;5026159;28;20389;-67
2023/07/07 10:28:14;;;;;;;4.25;1.70;;;;;;;23.65;45.61;101860.66;5023820;28;20033;-67
2023/07/07 10:30:40;;;;;;;4.70;1.65;;;;;;;23.67;45.44;101870.19;5041418;28;20427;-68
2023/07/07 10:33:09;;;;;;;4.60;1.65;;;;;;;23.68;45.64;101874.50;5024754;28;20036;-68
2023/07/07 10:35:34;;;;;;;4.30;1.50;;;;;;;23.59;45.85;101874.50;5035378;28;20055;-68
2023/07/07 10:38:04;;;;;;;3.95;1.60;;;;;;;23.52;45.80;101868.88;5030606;28;20028;-67
2023/07/07 10:40:30;;;;;;;3.85;1.50;;;;;;;23.53;45.43;101865.25;5041500;28;20465;-65
2023/07/07 10:42:57;;;;;;;7.40;1.70;;;;;;;23.54;45.21;101866.91;5036832;28;20029;-64
2023/07/07 10:45:23;;;;;;;3.03;1.42;;;;;;;23.49;45.38;101864.66;5023040;28;20044;-66
2023/07/07 10:47:49;;;;;;;3.80;1.70;;;;;;;23.46;45.21;101861.44;5023299;28;20026;-66
2023/07/07 10:50:20;;;;;;;3.85;1.70;;;;;;;23.43;45.55;101859.03;5023374;28;20405;-68
2023/07/07 10:53:05;;;;;;;3.28;1.50;;;;;;;23.41;46.04;101855.69;5034146;28;20704;-66
2023/07/07 10:55:59;;;;;;;5.30;1.92;;;;;;;23.39;45.98;101871.78;5028434;28;20478;-67
2023/07/07 10:58:44;;;;;;;4.95;1.88;;;;;;;23.38;46.13;101859.44;5039604;28;20041;-66
2023/07/07 11:01:34;;;;;;;5.93;2.53;;;;;;;23.37;46.23;101857.78;5042661;28;20032;-66
2023/07/07 11:04:17;;;;;;;6.43;2.83;;;;;;;23.33;46.29;101859.84;5038275;28;20063;-65
2023/07/07 11:07:02;;;;;;;12.25;3.20;;;;;;;23.34;46.15;101864.19;5026415;28;20104;-64
2023/07/07 11:09:40;;;;;;;11.65;3.65;;;;;;;23.37;45.44;101860.44;5033156;28;20108;-65
2023/07/07 11:12:18;;;;;;;9.55;2.97;;;;;;;23.35;45.51;101862.38;5020636;28;20485;-67
2023/07/07 11:15:03;;;;;;;9.27;2.70;;;;;;;23.42;45.79;101852.88;5030165;28;20044;-64
2023/07/07 11:17:28;;;;;;;;;;;;;;;23.58;45.23;101859.53;5048200;28;20837;-65
2023/07/07 11:20:14;;;;;;;6.00;2.23;;;;;;;23.58;45.04;101862.19;5038270;28;19966;-65
2023/07/07 11:23:16;;;;;;;8.68;2.38;;;;;;;23.55;45.24;101834.84;5042011;28;20131;-65
2023/07/07 11:25:59;;;;;;;6.72;2.60;;;;;;;23.59;45.17;101851.41;5033818;28;20043;-65
2023/07/07 11:28:46;;;;;;;6.30;2.50;;;;;;;23.59;45.03;101839.91;5021950;28;20120;-64
2023/07/07 11:31:38;;;;;;;7.82;2.30;;;;;;;23.57;45.07;101842.69;5021822;28;20052;-67
2023/07/07 11:34:27;;;;;;;7.30;2.58;;;;;;;23.60;45.09;101836.28;5027272;28;20457;-67